sensor_id;sensor_type;location;lat;lon;timestamp;P1;durP1;ratioP1;P2;durP2;ratioP2
18732;SDS011;9495;51.210;2.934;2023-06-14T00:00:05;25.63;;;8.95;;
18732;SDS011;9495;51.210;2.934;2023-06-14T00:02:35;19.50;;;8.00;;
18732;SDS011;9495;51.210;2.934;2023-06-14T00:05:04;21.67;;;8.13;;
18732;SDS011;9495;51.210;2.934;2023-06-14T00:07:35;21.65;;;7.93;;
18732;SDS011;9495;51.210;2.934;2023-06-14T00:10:05;23.17;;;8.32;;
18732;SDS011;9495;51.210;2.934;2023-06-14T00:12:34;23.25;;;8.55;;
18732;SDS011;9495;51.210;2.934;2023-06-14T00:15:03;17.63;;;7.80;;
18732;SDS011;9495;51.210;2.934;2023-06-14T00:17:32;18.55;;;8.27;;
18732;SDS011;9495;51.210;2.934;2023-06-14T00:20:02;15.80;;;8.18;;
18732;SDS011;9495;51.210;2.934;2023-06-14T00:22:36;16.45;;;7.20;;
18732;SDS011;9495;51.210;2.934;2023-06-14T00:25:05;16.63;;;7.35;;
18732;SDS011;9495;51.210;2.934;2023-06-14T00:27:54;17.65;;;7.68;;
18732;SDS011;9495;51.210;2.934;2023-06-14T00:30:23;14.43;;;6.95;;
18732;SDS011;9495;51.210;2.934;2023-06-14T00:32:57;15.50;;;7.38;;
18732;SDS011;9495;51.210;2.934;2023-06-14T00:35:26;13.52;;;7.20;;
18732;SDS011;9495;51.210;2.934;2023-06-14T00:37:56;15.88;;;6.93;;
18732;SDS011;9495;51.210;2.934;2023-06-14T00:40:26;11.43;;;6.75;;
18732;SDS011;9495;51.210;2.934;2023-06-14T00:42:54;12.82;;;6.78;;
18732;SDS011;9495;51.210;2.934;2023-06-14T00:45:23;14.48;;;7.10;;
18732;SDS011;9495;51.210;2.934;2023-06-14T00:47:51;12.52;;;7.03;;
18732;SDS011;9495;51.210;2.934;2023-06-14T00:50:22;12.05;;;6.72;;
18732;SDS011;9495;51.210;2.934;2023-06-14T00:52:51;13.25;;;7.13;;
18732;SDS011;9495;51.210;2.934;2023-06-14T00:55:20;10.50;;;6.30;;
18732;SDS011;9495;51.210;2.934;2023-06-14T00:57:49;9.35;;;6.78;;
18732;SDS011;9495;51.210;2.934;2023-06-14T01:00:17;13.75;;;6.95;;
18732;SDS011;9495;51.210;2.934;2023-06-14T01:02:46;9.90;;;6.30;;
18732;SDS011;9495;51.210;2.934;2023-06-14T01:05:16;13.25;;;6.82;;
18732;SDS011;9495;51.210;2.934;2023-06-14T01:07:51;9.05;;;6.80;;
18732;SDS011;9495;51.210;2.934;2023-06-14T01:10:34;7.57;;;6.50;;
18732;SDS011;9495;51.210;2.934;2023-06-14T01:13:10;11.63;;;6.88;;
18732;SDS011;9495;51.210;2.934;2023-06-14T01:15:43;10.63;;;6.40;;
18732;SDS011;9495;51.210;2.934;2023-06-14T01:18:12;9.75;;;6.40;;
18732;SDS011;9495;51.210;2.934;2023-06-14T01:20:44;8.75;;;6.60;;
18732;SDS011;9495;51.210;2.934;2023-06-14T01:23:17;11.93;;;6.45;;
18732;SDS011;9495;51.210;2.934;2023-06-14T01:25:47;12.32;;;6.53;;
18732;SDS011;9495;51.210;2.934;2023-06-14T01:28:19;17.88;;;7.13;;
18732;SDS011;9495;51.210;2.934;2023-06-14T01:30:49;10.35;;;6.97;;
18732;SDS011;9495;51.210;2.934;2023-06-14T01:33:20;11.77;;;6.53;;
18732;SDS011;9495;51.210;2.934;2023-06-14T01:35:50;7.65;;;6.38;;
18732;SDS011;9495;51.210;2.934;2023-06-14T01:38:22;12.18;;;6.35;;
18732;SDS011;9495;51.210;2.934;2023-06-14T01:40:53;7.43;;;6.70;;
18732;SDS011;9495;51.210;2.934;2023-06-14T01:43:24;8.35;;;7.10;;
18732;SDS011;9495;51.210;2.934;2023-06-14T01:45:53;8.07;;;7.20;;
18732;SDS011;9495;51.210;2.934;2023-06-14T01:48:23;9.50;;;6.75;;
18732;SDS011;9495;51.210;2.934;2023-06-14T01:50:51;11.88;;;6.80;;
18732;SDS011;9495;51.210;2.934;2023-06-14T01:53:21;16.65;;;7.55;;
18732;SDS011;9495;51.210;2.934;2023-06-14T01:55:50;9.90;;;6.95;;
18732;SDS011;9495;51.210;2.934;2023-06-14T01:58:20;11.75;;;6.88;;
18732;SDS011;9495;51.210;2.934;2023-06-14T02:00:50;13.05;;;7.90;;
18732;SDS011;9495;51.210;2.934;2023-06-14T02:03:21;12.15;;;7.57;;
18732;SDS011;9495;51.210;2.934;2023-06-14T02:05:51;12.48;;;7.57;;
18732;SDS011;9495;51.210;2.934;2023-06-14T02:08:22;10.50;;;7.13;;
18732;SDS011;9495;51.210;2.934;2023-06-14T02:10:51;8.85;;;7.28;;
18732;SDS011;9495;51.210;2.934;2023-06-14T02:13:19;17.75;;;7.20;;
18732;SDS011;9495;51.210;2.934;2023-06-14T02:15:48;10.85;;;7.00;;
18732;SDS011;9495;51.210;2.934;2023-06-14T02:18:19;12.45;;;6.90;;
18732;SDS011;9495;51.210;2.934;2023-06-14T02:20:48;9.80;;;7.32;;
18732;SDS011;9495;51.210;2.934;2023-06-14T02:23:17;9.82;;;7.07;;
18732;SDS011;9495;51.210;2.934;2023-06-14T02:25:47;10.05;;;7.68;;
18732;SDS011;9495;51.210;2.934;2023-06-14T02:28:15;11.20;;;7.00;;
18732;SDS011;9495;51.210;2.934;2023-06-14T02:30:44;8.35;;;6.80;;
18732;SDS011;9495;51.210;2.934;2023-06-14T02:33:12;10.52;;;7.50;;
18732;SDS011;9495;51.210;2.934;2023-06-14T02:35:41;9.45;;;6.97;;
18732;SDS011;9495;51.210;2.934;2023-06-14T02:38:10;10.75;;;7.47;;
18732;SDS011;9495;51.210;2.934;2023-06-14T02:40:39;10.90;;;6.93;;
18732;SDS011;9495;51.210;2.934;2023-06-14T02:43:10;12.13;;;7.18;;
18732;SDS011;9495;51.210;2.934;2023-06-14T02:45:38;10.45;;;7.32;;
18732;SDS011;9495;51.210;2.934;2023-06-14T02:48:07;9.63;;;6.78;;
18732;SDS011;9495;51.210;2.934;2023-06-14T02:50:36;14.70;;;7.15;;
18732;SDS011;9495;51.210;2.934;2023-06-14T02:53:05;9.93;;;7.45;;
18732;SDS011;9495;51.210;2.934;2023-06-14T02:55:33;10.73;;;7.15;;
18732;SDS011;9495;51.210;2.934;2023-06-14T02:58:05;11.25;;;7.38;;
18732;SDS011;9495;51.210;2.934;2023-06-14T03:00:35;10.27;;;7.00;;
18732;SDS011;9495;51.210;2.934;2023-06-14T03:03:05;11.05;;;7.07;;
18732;SDS011;9495;51.210;2.934;2023-06-14T03:05:40;10.70;;;6.78;;
18732;SDS011;9495;51.210;2.934;2023-06-14T03:08:12;11.20;;;6.80;;
18732;SDS011;9495;51.210;2.934;2023-06-14T03:10:43;9.88;;;7.03;;
18732;SDS011;9495;51.210;2.934;2023-06-14T03:13:12;9.50;;;7.13;;
18732;SDS011;9495;51.210;2.934;2023-06-14T03:15:42;10.82;;;6.18;;
18732;SDS011;9495;51.210;2.934;2023-06-14T03:18:11;13.25;;;6.45;;
18732;SDS011;9495;51.210;2.934;2023-06-14T03:20:41;11.65;;;6.85;;
18732;SDS011;9495;51.210;2.934;2023-06-14T03:23:12;8.75;;;6.30;;
18732;SDS011;9495;51.210;2.934;2023-06-14T03:25:40;11.77;;;6.68;;
18732;SDS011;9495;51.210;2.934;2023-06-14T03:28:09;15.20;;;7.13;;
18732;SDS011;9495;51.210;2.934;2023-06-14T03:30:37;10.48;;;6.57;;
18732;SDS011;9495;51.210;2.934;2023-06-14T03:33:07;8.27;;;6.45;;
18732;SDS011;9495;51.210;2.934;2023-06-14T03:35:36;13.10;;;6.65;;
18732;SDS011;9495;51.210;2.934;2023-06-14T03:38:04;11.55;;;6.90;;
18732;SDS011;9495;51.210;2.934;2023-06-14T03:40:33;11.65;;;6.57;;
18732;SDS011;9495;51.210;2.934;2023-06-14T03:43:01;8.35;;;6.13;;
18732;SDS011;9495;51.210;2.934;2023-06-14T03:45:30;10.48;;;6.32;;
18732;SDS011;9495;51.210;2.934;2023-06-14T03:47:58;10.48;;;6.70;;
18732;SDS011;9495;51.210;2.934;2023-06-14T03:50:29;9.05;;;6.28;;
18732;SDS011;9495;51.210;2.934;2023-06-14T03:52:58;10.00;;;6.50;;
18732;SDS011;9495;51.210;2.934;2023-06-14T03:55:28;9.07;;;6.35;;
18732;SDS011;9495;51.210;2.934;2023-06-14T03:58:00;12.55;;;5.70;;
18732;SDS011;9495;51.210;2.934;2023-06-14T04:00:29;13.82;;;6.50;;
18732;SDS011;9495;51.210;2.934;2023-06-14T04:02:58;13.57;;;6.68;;
18732;SDS011;9495;51.210;2.934;2023-06-14T04:05:29;10.77;;;7.15;;
18732;SDS011;9495;51.210;2.934;2023-06-14T04:07:58;12.98;;;7.03;;
18732;SDS011;9495;51.210;2.934;2023-06-14T04:10:27;8.10;;;6.40;;
18732;SDS011;9495;51.210;2.934;2023-06-14T04:12:55;11.05;;;6.40;;
18732;SDS011;9495;51.210;2.934;2023-06-14T04:15:24;7.68;;;6.18;;
18732;SDS011;9495;51.210;2.934;2023-06-14T04:17:54;8.93;;;5.85;;
18732;SDS011;9495;51.210;2.934;2023-06-14T04:20:24;11.20;;;6.80;;
18732;SDS011;9495;51.210;2.934;2023-06-14T04:22:56;11.30;;;6.25;;
18732;SDS011;9495;51.210;2.934;2023-06-14T04:25:24;11.55;;;6.40;;
18732;SDS011;9495;51.210;2.934;2023-06-14T04:27:55;11.25;;;6.28;;
18732;SDS011;9495;51.210;2.934;2023-06-14T04:30:24;9.88;;;6.40;;
18732;SDS011;9495;51.210;2.934;2023-06-14T04:32:55;12.02;;;6.78;;
18732;SDS011;9495;51.210;2.934;2023-06-14T04:35:24;10.02;;;5.78;;
18732;SDS011;9495;51.210;2.934;2023-06-14T04:37:55;13.05;;;6.70;;
18732;SDS011;9495;51.210;2.934;2023-06-14T04:40:23;13.05;;;6.90;;
18732;SDS011;9495;51.210;2.934;2023-06-14T04:42:52;11.52;;;6.72;;
18732;SDS011;9495;51.210;2.934;2023-06-14T04:45:21;21.20;;;6.95;;
18732;SDS011;9495;51.210;2.934;2023-06-14T04:47:50;11.15;;;6.60;;
18732;SDS011;9495;51.210;2.934;2023-06-14T04:50:24;14.23;;;6.55;;
18732;SDS011;9495;51.210;2.934;2023-06-14T04:52:52;12.00;;;6.72;;
18732;SDS011;9495;51.210;2.934;2023-06-14T04:55:23;12.18;;;6.28;;
18732;SDS011;9495;51.210;2.934;2023-06-14T04:57:52;13.95;;;7.00;;
18732;SDS011;9495;51.210;2.934;2023-06-14T05:00:21;12.70;;;6.20;;
18732;SDS011;9495;51.210;2.934;2023-06-14T05:02:51;15.20;;;6.60;;
18732;SDS011;9495;51.210;2.934;2023-06-14T05:05:20;12.90;;;6.38;;
18732;SDS011;9495;51.210;2.934;2023-06-14T05:07:48;11.73;;;6.60;;
18732;SDS011;9495;51.210;2.934;2023-06-14T05:10:18;10.90;;;6.43;;
18732;SDS011;9495;51.210;2.934;2023-06-14T05:12:47;14.80;;;6.35;;
18732;SDS011;9495;51.210;2.934;2023-06-14T05:15:16;8.75;;;6.43;;
18732;SDS011;9495;51.210;2.934;2023-06-14T05:17:45;13.57;;;6.35;;
18732;SDS011;9495;51.210;2.934;2023-06-14T05:20:19;21.73;;;6.97;;
18732;SDS011;9495;51.210;2.934;2023-06-14T05:22:49;16.38;;;7.40;;
18732;SDS011;9495;51.210;2.934;2023-06-14T05:25:20;15.77;;;6.70;;
18732;SDS011;9495;51.210;2.934;2023-06-14T05:27:48;14.50;;;7.07;;
18732;SDS011;9495;51.210;2.934;2023-06-14T05:30:17;20.83;;;6.88;;
18732;SDS011;9495;51.210;2.934;2023-06-14T05:32:45;17.88;;;7.13;;
18732;SDS011;9495;51.210;2.934;2023-06-14T05:35:14;13.95;;;7.15;;
18732;SDS011;9495;51.210;2.934;2023-06-14T05:37:43;14.02;;;6.70;;
18732;SDS011;9495;51.210;2.934;2023-06-14T05:40:12;13.38;;;7.18;;
18732;SDS011;9495;51.210;2.934;2023-06-14T05:42:42;12.32;;;6.85;;
18732;SDS011;9495;51.210;2.934;2023-06-14T05:45:10;13.35;;;6.43;;
18732;SDS011;9495;51.210;2.934;2023-06-14T05:47:39;14.43;;;6.93;;
18732;SDS011;9495;51.210;2.934;2023-06-14T05:50:08;15.65;;;7.35;;
18732;SDS011;9495;51.210;2.934;2023-06-14T05:52:37;11.93;;;7.10;;
18732;SDS011;9495;51.210;2.934;2023-06-14T05:55:06;14.35;;;8.20;;
18732;SDS011;9495;51.210;2.934;2023-06-14T05:57:35;16.63;;;7.85;;
18732;SDS011;9495;51.210;2.934;2023-06-14T06:00:06;13.45;;;7.28;;
18732;SDS011;9495;51.210;2.934;2023-06-14T06:02:41;12.65;;;7.38;;
18732;SDS011;9495;51.210;2.934;2023-06-14T06:05:10;13.48;;;7.57;;
18732;SDS011;9495;51.210;2.934;2023-06-14T06:07:39;15.93;;;8.23;;
18732;SDS011;9495;51.210;2.934;2023-06-14T06:10:08;14.57;;;7.80;;
18732;SDS011;9495;51.210;2.934;2023-06-14T06:12:37;15.73;;;7.65;;
18732;SDS011;9495;51.210;2.934;2023-06-14T06:15:07;16.55;;;8.52;;
18732;SDS011;9495;51.210;2.934;2023-06-14T06:17:39;11.05;;;7.70;;
18732;SDS011;9495;51.210;2.934;2023-06-14T06:20:21;12.65;;;8.00;;
18732;SDS011;9495;51.210;2.934;2023-06-14T06:22:55;16.38;;;8.38;;
18732;SDS011;9495;51.210;2.934;2023-06-14T06:25:23;14.55;;;8.65;;
18732;SDS011;9495;51.210;2.934;2023-06-14T06:27:52;13.32;;;8.43;;
18732;SDS011;9495;51.210;2.934;2023-06-14T06:30:23;17.50;;;9.00;;
18732;SDS011;9495;51.210;2.934;2023-06-14T06:32:53;19.05;;;8.52;;
18732;SDS011;9495;51.210;2.934;2023-06-14T06:35:22;16.85;;;8.95;;
18732;SDS011;9495;51.210;2.934;2023-06-14T06:37:51;14.68;;;8.95;;
18732;SDS011;9495;51.210;2.934;2023-06-14T06:40:20;15.38;;;8.95;;
18732;SDS011;9495;51.210;2.934;2023-06-14T06:42:48;15.13;;;8.50;;
18732;SDS011;9495;51.210;2.934;2023-06-14T06:45:17;16.50;;;8.23;;
18732;SDS011;9495;51.210;2.934;2023-06-14T06:47:49;11.68;;;7.88;;
18732;SDS011;9495;51.210;2.934;2023-06-14T06:50:18;15.40;;;8.07;;
18732;SDS011;9495;51.210;2.934;2023-06-14T06:52:49;15.00;;;8.10;;
18732;SDS011;9495;51.210;2.934;2023-06-14T06:55:18;26.42;;;9.02;;
18732;SDS011;9495;51.210;2.934;2023-06-14T06:57:46;18.98;;;8.63;;
18732;SDS011;9495;51.210;2.934;2023-06-14T07:00:16;13.75;;;8.82;;
18732;SDS011;9495;51.210;2.934;2023-06-14T07:02:45;13.85;;;8.65;;
18732;SDS011;9495;51.210;2.934;2023-06-14T07:05:16;14.82;;;8.63;;
18732;SDS011;9495;51.210;2.934;2023-06-14T07:07:45;14.30;;;8.82;;
18732;SDS011;9495;51.210;2.934;2023-06-14T07:10:13;18.35;;;8.05;;
18732;SDS011;9495;51.210;2.934;2023-06-14T07:12:42;18.85;;;8.63;;
18732;SDS011;9495;51.210;2.934;2023-06-14T07:15:11;12.73;;;8.18;;
18732;SDS011;9495;51.210;2.934;2023-06-14T07:17:40;16.30;;;8.25;;
18732;SDS011;9495;51.210;2.934;2023-06-14T07:20:09;13.30;;;8.35;;
18732;SDS011;9495;51.210;2.934;2023-06-14T07:22:41;16.67;;;7.65;;
18732;SDS011;9495;51.210;2.934;2023-06-14T07:25:11;12.00;;;8.30;;
18732;SDS011;9495;51.210;2.934;2023-06-14T07:27:42;15.80;;;8.30;;
18732;SDS011;9495;51.210;2.934;2023-06-14T07:30:11;18.75;;;8.25;;
18732;SDS011;9495;51.210;2.934;2023-06-14T07:32:40;16.65;;;8.10;;
18732;SDS011;9495;51.210;2.934;2023-06-14T07:35:09;11.40;;;7.40;;
18732;SDS011;9495;51.210;2.934;2023-06-14T07:37:37;11.15;;;7.63;;
18732;SDS011;9495;51.210;2.934;2023-06-14T07:40:08;10.93;;;8.10;;
18732;SDS011;9495;51.210;2.934;2023-06-14T07:42:37;10.98;;;7.70;;
18732;SDS011;9495;51.210;2.934;2023-06-14T07:45:06;10.40;;;7.57;;
18732;SDS011;9495;51.210;2.934;2023-06-14T07:47:34;14.38;;;7.00;;
18732;SDS011;9495;51.210;2.934;2023-06-14T07:50:03;13.18;;;6.80;;
18732;SDS011;9495;51.210;2.934;2023-06-14T07:52:32;9.80;;;6.65;;
18732;SDS011;9495;51.210;2.934;2023-06-14T07:55:01;8.82;;;6.75;;
18732;SDS011;9495;51.210;2.934;2023-06-14T07:57:31;11.82;;;7.28;;
18732;SDS011;9495;51.210;2.934;2023-06-14T08:00:00;15.38;;;7.20;;
18732;SDS011;9495;51.210;2.934;2023-06-14T08:02:32;8.80;;;7.07;;
18732;SDS011;9495;51.210;2.934;2023-06-14T08:05:01;9.90;;;7.22;;
18732;SDS011;9495;51.210;2.934;2023-06-14T08:07:29;10.38;;;6.90;;
18732;SDS011;9495;51.210;2.934;2023-06-14T08:09:58;13.60;;;7.55;;
18732;SDS011;9495;51.210;2.934;2023-06-14T08:12:27;11.57;;;6.47;;
18732;SDS011;9495;51.210;2.934;2023-06-14T08:14:57;13.05;;;6.55;;
18732;SDS011;9495;51.210;2.934;2023-06-14T08:17:39;10.93;;;7.03;;
18732;SDS011;9495;51.210;2.934;2023-06-14T08:20:08;13.27;;;6.55;;
18732;SDS011;9495;51.210;2.934;2023-06-14T08:22:37;12.30;;;6.57;;
18732;SDS011;9495;51.210;2.934;2023-06-14T08:25:08;12.52;;;7.22;;
18732;SDS011;9495;51.210;2.934;2023-06-14T08:27:38;10.75;;;7.20;;
18732;SDS011;9495;51.210;2.934;2023-06-14T08:30:09;12.43;;;6.53;;
18732;SDS011;9495;51.210;2.934;2023-06-14T08:32:39;15.75;;;6.70;;
18732;SDS011;9495;51.210;2.934;2023-06-14T08:35:07;16.25;;;7.07;;
18732;SDS011;9495;51.210;2.934;2023-06-14T08:37:37;9.70;;;6.88;;
18732;SDS011;9495;51.210;2.934;2023-06-14T08:40:08;13.07;;;6.95;;
18732;SDS011;9495;51.210;2.934;2023-06-14T08:42:47;15.48;;;7.53;;
18732;SDS011;9495;51.210;2.934;2023-06-14T08:45:19;14.45;;;7.35;;
18732;SDS011;9495;51.210;2.934;2023-06-14T08:47:51;10.15;;;6.75;;
18732;SDS011;9495;51.210;2.934;2023-06-14T08:50:25;11.75;;;7.55;;
18732;SDS011;9495;51.210;2.934;2023-06-14T08:53:00;10.27;;;7.05;;
18732;SDS011;9495;51.210;2.934;2023-06-14T08:55:30;12.70;;;7.30;;
18732;SDS011;9495;51.210;2.934;2023-06-14T08:58:04;13.77;;;8.05;;
18732;SDS011;9495;51.210;2.934;2023-06-14T09:00:34;12.55;;;7.55;;
18732;SDS011;9495;51.210;2.934;2023-06-14T09:03:05;13.32;;;7.22;;
18732;SDS011;9495;51.210;2.934;2023-06-14T09:05:40;11.65;;;7.20;;
18732;SDS011;9495;51.210;2.934;2023-06-14T09:08:09;14.07;;;8.02;;
18732;SDS011;9495;51.210;2.934;2023-06-14T09:10:37;11.98;;;7.40;;
18732;SDS011;9495;51.210;2.934;2023-06-14T09:13:08;10.45;;;7.93;;
18732;SDS011;9495;51.210;2.934;2023-06-14T09:15:38;14.15;;;7.90;;
18732;SDS011;9495;51.210;2.934;2023-06-14T09:18:06;11.32;;;7.40;;
18732;SDS011;9495;51.210;2.934;2023-06-14T09:20:35;21.10;;;7.15;;
18732;SDS011;9495;51.210;2.934;2023-06-14T09:23:03;12.63;;;8.05;;
18732;SDS011;9495;51.210;2.934;2023-06-14T09:25:36;19.25;;;8.13;;
18732;SDS011;9495;51.210;2.934;2023-06-14T09:28:10;11.48;;;7.40;;
18732;SDS011;9495;51.210;2.934;2023-06-14T09:30:40;11.82;;;7.40;;
18732;SDS011;9495;51.210;2.934;2023-06-14T09:33:09;11.25;;;7.55;;
18732;SDS011;9495;51.210;2.934;2023-06-14T09:35:38;14.18;;;7.57;;
18732;SDS011;9495;51.210;2.934;2023-06-14T09:38:07;11.57;;;7.35;;
18732;SDS011;9495;51.210;2.934;2023-06-14T09:40:36;10.82;;;7.50;;
18732;SDS011;9495;51.210;2.934;2023-06-14T09:43:05;16.50;;;7.82;;
18732;SDS011;9495;51.210;2.934;2023-06-14T09:45:37;11.65;;;7.85;;
18732;SDS011;9495;51.210;2.934;2023-06-14T09:48:08;18.58;;;7.07;;
18732;SDS011;9495;51.210;2.934;2023-06-14T09:50:37;9.93;;;7.57;;
18732;SDS011;9495;51.210;2.934;2023-06-14T09:53:07;14.68;;;7.38;;
18732;SDS011;9495;51.210;2.934;2023-06-14T09:55:40;10.40;;;6.93;;
18732;SDS011;9495;51.210;2.934;2023-06-14T09:58:09;21.05;;;7.72;;
18732;SDS011;9495;51.210;2.934;2023-06-14T10:00:39;10.23;;;6.93;;
18732;SDS011;9495;51.210;2.934;2023-06-14T10:03:12;10.80;;;7.35;;
18732;SDS011;9495;51.210;2.934;2023-06-14T10:05:43;16.05;;;7.55;;
18732;SDS011;9495;51.210;2.934;2023-06-14T10:08:15;15.27;;;8.00;;
18732;SDS011;9495;51.210;2.934;2023-06-14T10:10:45;11.75;;;7.60;;
18732;SDS011;9495;51.210;2.934;2023-06-14T10:13:14;13.05;;;7.70;;
18732;SDS011;9495;51.210;2.934;2023-06-14T10:15:46;16.20;;;7.50;;
18732;SDS011;9495;51.210;2.934;2023-06-14T10:18:24;13.82;;;7.30;;
18732;SDS011;9495;51.210;2.934;2023-06-14T10:21:00;13.95;;;7.85;;
18732;SDS011;9495;51.210;2.934;2023-06-14T10:23:35;11.70;;;8.45;;
18732;SDS011;9495;51.210;2.934;2023-06-14T10:26:08;11.13;;;7.47;;
18732;SDS011;9495;51.210;2.934;2023-06-14T10:28:44;11.00;;;8.13;;
18732;SDS011;9495;51.210;2.934;2023-06-14T10:31:23;15.45;;;7.95;;
18732;SDS011;9495;51.210;2.934;2023-06-14T10:34:09;14.60;;;7.65;;
18732;SDS011;9495;51.210;2.934;2023-06-14T10:36:40;16.55;;;8.80;;
18732;SDS011;9495;51.210;2.934;2023-06-14T10:39:11;16.83;;;7.85;;
18732;SDS011;9495;51.210;2.934;2023-06-14T10:41:50;13.65;;;8.15;;
18732;SDS011;9495;51.210;2.934;2023-06-14T10:44:38;14.75;;;8.07;;
18732;SDS011;9495;51.210;2.934;2023-06-14T10:47:20;15.30;;;8.38;;
18732;SDS011;9495;51.210;2.934;2023-06-14T10:49:52;17.02;;;8.32;;
18732;SDS011;9495;51.210;2.934;2023-06-14T10:52:22;12.15;;;8.52;;
18732;SDS011;9495;51.210;2.934;2023-06-14T10:55:07;13.48;;;8.52;;
18732;SDS011;9495;51.210;2.934;2023-06-14T10:57:39;15.90;;;7.38;;
18732;SDS011;9495;51.210;2.934;2023-06-14T11:00:12;12.02;;;7.45;;
18732;SDS011;9495;51.210;2.934;2023-06-14T11:05:52;10.38;;;7.80;;
18732;SDS011;9495;51.210;2.934;2023-06-14T11:11:13;13.15;;;7.68;;
18732;SDS011;9495;51.210;2.934;2023-06-14T11:13:43;14.38;;;7.55;;
18732;SDS011;9495;51.210;2.934;2023-06-14T11:16:14;12.10;;;7.72;;
18732;SDS011;9495;51.210;2.934;2023-06-14T11:18:43;17.83;;;8.43;;
18732;SDS011;9495;51.210;2.934;2023-06-14T11:21:16;15.07;;;8.93;;
18732;SDS011;9495;51.210;2.934;2023-06-14T11:23:54;16.13;;;8.43;;
18732;SDS011;9495;51.210;2.934;2023-06-14T11:26:26;16.00;;;8.27;;
18732;SDS011;9495;51.210;2.934;2023-06-14T11:28:55;12.88;;;7.68;;
18732;SDS011;9495;51.210;2.934;2023-06-14T11:31:25;13.00;;;7.93;;
18732;SDS011;9495;51.210;2.934;2023-06-14T11:33:54;15.02;;;7.63;;
18732;SDS011;9495;51.210;2.934;2023-06-14T11:36:27;13.13;;;7.72;;
18732;SDS011;9495;51.210;2.934;2023-06-14T11:38:58;18.45;;;8.20;;
18732;SDS011;9495;51.210;2.934;2023-06-14T11:41:32;15.85;;;7.28;;
18732;SDS011;9495;51.210;2.934;2023-06-14T11:44:01;18.30;;;8.38;;
18732;SDS011;9495;51.210;2.934;2023-06-14T11:46:30;15.85;;;8.07;;
18732;SDS011;9495;51.210;2.934;2023-06-14T11:48:59;13.82;;;8.25;;
18732;SDS011;9495;51.210;2.934;2023-06-14T11:51:31;14.38;;;8.65;;
18732;SDS011;9495;51.210;2.934;2023-06-14T11:54:00;16.75;;;8.27;;
18732;SDS011;9495;51.210;2.934;2023-06-14T11:56:30;10.27;;;7.53;;
18732;SDS011;9495;51.210;2.934;2023-06-14T11:58:59;14.82;;;8.63;;
18732;SDS011;9495;51.210;2.934;2023-06-14T12:01:29;15.27;;;9.55;;
18732;SDS011;9495;51.210;2.934;2023-06-14T12:03:58;17.13;;;9.20;;
18732;SDS011;9495;51.210;2.934;2023-06-14T12:06:28;12.48;;;8.90;;
18732;SDS011;9495;51.210;2.934;2023-06-14T12:09:02;16.08;;;9.15;;
18732;SDS011;9495;51.210;2.934;2023-06-14T12:11:33;15.02;;;8.10;;
18732;SDS011;9495;51.210;2.934;2023-06-14T12:14:03;11.35;;;8.73;;
18732;SDS011;9495;51.210;2.934;2023-06-14T12:16:32;12.88;;;8.10;;
18732;SDS011;9495;51.210;2.934;2023-06-14T12:19:08;16.08;;;9.10;;
18732;SDS011;9495;51.210;2.934;2023-06-14T12:21:38;11.93;;;9.05;;
18732;SDS011;9495;51.210;2.934;2023-06-14T12:24:08;15.18;;;8.88;;
18732;SDS011;9495;51.210;2.934;2023-06-14T12:26:39;17.00;;;9.88;;
18732;SDS011;9495;51.210;2.934;2023-06-14T12:29:09;12.68;;;8.90;;
18732;SDS011;9495;51.210;2.934;2023-06-14T12:31:39;19.88;;;9.65;;
18732;SDS011;9495;51.210;2.934;2023-06-14T12:34:09;17.83;;;9.48;;
18732;SDS011;9495;51.210;2.934;2023-06-14T12:36:38;15.70;;;8.90;;
18732;SDS011;9495;51.210;2.934;2023-06-14T12:39:12;13.75;;;9.00;;
18732;SDS011;9495;51.210;2.934;2023-06-14T12:41:41;14.98;;;9.68;;
18732;SDS011;9495;51.210;2.934;2023-06-14T12:44:09;14.27;;;8.52;;
18732;SDS011;9495;51.210;2.934;2023-06-14T12:46:38;15.30;;;9.52;;
18732;SDS011;9495;51.210;2.934;2023-06-14T12:49:08;17.08;;;9.05;;
18732;SDS011;9495;51.210;2.934;2023-06-14T12:51:37;12.95;;;8.43;;
18732;SDS011;9495;51.210;2.934;2023-06-14T12:54:07;12.52;;;8.50;;
18732;SDS011;9495;51.210;2.934;2023-06-14T12:56:37;12.43;;;9.13;;
18732;SDS011;9495;51.210;2.934;2023-06-14T12:59:06;14.52;;;8.57;;
18732;SDS011;9495;51.210;2.934;2023-06-14T13:01:34;14.13;;;8.82;;
18732;SDS011;9495;51.210;2.934;2023-06-14T13:04:03;11.90;;;8.43;;
18732;SDS011;9495;51.210;2.934;2023-06-14T13:06:32;16.77;;;8.82;;
18732;SDS011;9495;51.210;2.934;2023-06-14T13:09:00;19.48;;;9.30;;
18732;SDS011;9495;51.210;2.934;2023-06-14T13:11:30;15.45;;;9.27;;
18732;SDS011;9495;51.210;2.934;2023-06-14T13:14:00;15.50;;;9.57;;
18732;SDS011;9495;51.210;2.934;2023-06-14T13:16:43;16.27;;;9.07;;
18732;SDS011;9495;51.210;2.934;2023-06-14T13:19:11;14.02;;;9.45;;
18732;SDS011;9495;51.210;2.934;2023-06-14T13:21:40;16.13;;;10.45;;
18732;SDS011;9495;51.210;2.934;2023-06-14T13:24:08;14.55;;;8.63;;
18732;SDS011;9495;51.210;2.934;2023-06-14T13:26:37;17.13;;;9.27;;
18732;SDS011;9495;51.210;2.934;2023-06-14T13:29:07;13.25;;;9.05;;
18732;SDS011;9495;51.210;2.934;2023-06-14T13:31:35;15.43;;;9.05;;
18732;SDS011;9495;51.210;2.934;2023-06-14T13:34:04;16.35;;;9.63;;
18732;SDS011;9495;51.210;2.934;2023-06-14T13:36:32;12.07;;;8.43;;
18732;SDS011;9495;51.210;2.934;2023-06-14T13:39:01;15.90;;;8.70;;
18732;SDS011;9495;51.210;2.934;2023-06-14T13:41:31;14.30;;;9.82;;
18732;SDS011;9495;51.210;2.934;2023-06-14T13:44:01;15.02;;;8.73;;
18732;SDS011;9495;51.210;2.934;2023-06-14T13:46:32;18.15;;;8.32;;
18732;SDS011;9495;51.210;2.934;2023-06-14T13:49:01;16.58;;;8.85;;
18732;SDS011;9495;51.210;2.934;2023-06-14T13:51:32;14.02;;;8.88;;
18732;SDS011;9495;51.210;2.934;2023-06-14T13:54:01;14.52;;;8.57;;
18732;SDS011;9495;51.210;2.934;2023-06-14T13:56:30;20.02;;;9.18;;
18732;SDS011;9495;51.210;2.934;2023-06-14T13:58:59;14.77;;;8.15;;
18732;SDS011;9495;51.210;2.934;2023-06-14T14:01:27;14.73;;;9.48;;
18732;SDS011;9495;51.210;2.934;2023-06-14T14:03:57;13.13;;;8.98;;
18732;SDS011;9495;51.210;2.934;2023-06-14T14:06:27;16.45;;;9.10;;
18732;SDS011;9495;51.210;2.934;2023-06-14T14:08:55;12.88;;;9.32;;
18732;SDS011;9495;51.210;2.934;2023-06-14T14:11:24;18.30;;;10.18;;
18732;SDS011;9495;51.210;2.934;2023-06-14T14:13:52;24.38;;;9.65;;
18732;SDS011;9495;51.210;2.934;2023-06-14T14:16:21;17.85;;;9.07;;
18732;SDS011;9495;51.210;2.934;2023-06-14T14:18:49;21.85;;;9.57;;
18732;SDS011;9495;51.210;2.934;2023-06-14T14:21:19;15.98;;;8.82;;
18732;SDS011;9495;51.210;2.934;2023-06-14T14:23:48;15.43;;;8.88;;
18732;SDS011;9495;51.210;2.934;2023-06-14T14:26:17;13.25;;;8.70;;
18732;SDS011;9495;51.210;2.934;2023-06-14T14:28:46;14.75;;;8.23;;
18732;SDS011;9495;51.210;2.934;2023-06-14T14:31:15;15.43;;;8.98;;
18732;SDS011;9495;51.210;2.934;2023-06-14T14:33:44;14.50;;;8.93;;
18732;SDS011;9495;51.210;2.934;2023-06-14T14:36:13;18.95;;;8.02;;
18732;SDS011;9495;51.210;2.934;2023-06-14T14:38:42;15.70;;;7.75;;
18732;SDS011;9495;51.210;2.934;2023-06-14T14:41:11;19.77;;;9.52;;
18732;SDS011;9495;51.210;2.934;2023-06-14T14:43:40;18.58;;;8.55;;
18732;SDS011;9495;51.210;2.934;2023-06-14T14:46:08;18.17;;;8.18;;
18732;SDS011;9495;51.210;2.934;2023-06-14T14:48:37;17.40;;;9.25;;
18732;SDS011;9495;51.210;2.934;2023-06-14T14:51:05;12.20;;;7.50;;
18732;SDS011;9495;51.210;2.934;2023-06-14T14:53:34;14.02;;;7.63;;
18732;SDS011;9495;51.210;2.934;2023-06-14T14:56:04;13.10;;;6.90;;
18732;SDS011;9495;51.210;2.934;2023-06-14T14:58:32;16.42;;;7.40;;
18732;SDS011;9495;51.210;2.934;2023-06-14T15:01:01;12.10;;;6.97;;
18732;SDS011;9495;51.210;2.934;2023-06-14T15:03:29;12.48;;;7.38;;
18732;SDS011;9495;51.210;2.934;2023-06-14T15:06:15;13.93;;;6.90;;
18732;SDS011;9495;51.210;2.934;2023-06-14T15:08:44;14.73;;;6.57;;
18732;SDS011;9495;51.210;2.934;2023-06-14T15:11:14;15.60;;;6.75;;